sensor_id;sensor_type;location;lat;lon;timestamp;temperature;humidity
6379;DHT22;3222;48.858;10.128;2023-01-24T00:01:25;1.20;99.90
6379;DHT22;3222;48.858;10.128;2023-01-24T00:03:51;1.20;99.90
6379;DHT22;3222;48.858;10.128;2023-01-24T00:06:17;1.20;99.90
6379;DHT22;3222;48.858;10.128;2023-01-24T00:08:43;1.20;99.90
6379;DHT22;3222;48.858;10.128;2023-01-24T00:11:10;1.10;99.90
6379;DHT22;3222;48.858;10.128;2023-01-24T00:13:37;1.10;99.90
6379;DHT22;3222;48.858;10.128;2023-01-24T00:16:10;1.10;99.90
6379;DHT22;3222;48.858;10.128;2023-01-24T00:18:38;1.10;99.90
6379;DHT22;3222;48.858;10.128;2023-01-24T00:21:15;1.10;99.90
6379;DHT22;3222;48.858;10.128;2023-01-24T00:23:43;1.20;99.90
6379;DHT22;3222;48.858;10.128;2023-01-24T00:26:09;1.20;99.90
6379;DHT22;3222;48.858;10.128;2023-01-24T00:28:35;1.20;99.90
6379;DHT22;3222;48.858;10.128;2023-01-24T00:31:01;1.20;99.90
6379;DHT22;3222;48.858;10.128;2023-01-24T00:33:27;1.30;99.90
6379;DHT22;3222;48.858;10.128;2023-01-24T00:35:53;1.20;99.90
6379;DHT22;3222;48.858;10.128;2023-01-24T00:38:20;1.10;99.90
6379;DHT22;3222;48.858;10.128;2023-01-24T00:40:46;1.30;99.90
6379;DHT22;3222;48.858;10.128;2023-01-24T00:43:12;1.30;99.90
6379;DHT22;3222;48.858;10.128;2023-01-24T00:45:38;1.30;99.90
6379;DHT22;3222;48.858;10.128;2023-01-24T00:48:05;1.30;99.90
6379;DHT22;3222;48.858;10.128;2023-01-24T00:50:31;1.30;99.90
6379;DHT22;3222;48.858;10.128;2023-01-24T00:52:57;1.30;99.90
6379;DHT22;3222;48.858;10.128;2023-01-24T00:55:23;1.20;99.90
6379;DHT22;3222;48.858;10.128;2023-01-24T00:57:49;1.20;99.90
6379;DHT22;3222;48.858;10.128;2023-01-24T01:00:14;1.20;99.90
6379;DHT22;3222;48.858;10.128;2023-01-24T01:02:41;1.20;99.90
6379;DHT22;3222;48.858;10.128;2023-01-24T01:05:07;1.20;99.90
6379;DHT22;3222;48.858;10.128;2023-01-24T01:07:33;1.30;99.90
6379;DHT22;3222;48.858;10.128;2023-01-24T01:09:59;1.30;99.90
6379;DHT22;3222;48.858;10.128;2023-01-24T01:12:25;1.20;99.90
6379;DHT22;3222;48.858;10.128;2023-01-24T01:14:51;1.30;99.90
6379;DHT22;3222;48.858;10.128;2023-01-24T01:17:16;1.30;99.90
6379;DHT22;3222;48.858;10.128;2023-01-24T01:19:42;1.30;99.90
6379;DHT22;3222;48.858;10.128;2023-01-24T01:22:09;1.30;99.90
6379;DHT22;3222;48.858;10.128;2023-01-24T01:24:35;1.30;99.90
6379;DHT22;3222;48.858;10.128;2023-01-24T01:27:01;1.20;99.90
6379;DHT22;3222;48.858;10.128;2023-01-24T01:29:27;1.20;99.90
6379;DHT22;3222;48.858;10.128;2023-01-24T01:31:53;1.30;99.90
6379;DHT22;3222;48.858;10.128;2023-01-24T01:34:19;1.20;99.90
6379;DHT22;3222;48.858;10.128;2023-01-24T01:36:44;1.30;99.90
6379;DHT22;3222;48.858;10.128;2023-01-24T01:39:10;1.20;99.90
6379;DHT22;3222;48.858;10.128;2023-01-24T01:41:37;1.30;99.90
6379;DHT22;3222;48.858;10.128;2023-01-24T01:44:21;1.30;99.90
6379;DHT22;3222;48.858;10.128;2023-01-24T01:49:49;1.40;99.90
6379;DHT22;3222;48.858;10.128;2023-01-24T01:52:16;1.40;99.90
6379;DHT22;3222;48.858;10.128;2023-01-24T01:54:43;1.30;99.90
6379;DHT22;3222;48.858;10.128;2023-01-24T01:57:21;1.20;99.90
6379;DHT22;3222;48.858;10.128;2023-01-24T01:59:55;1.30;99.90
6379;DHT22;3222;48.858;10.128;2023-01-24T02:02:22;1.20;99.90
6379;DHT22;3222;48.858;10.128;2023-01-24T02:04:55;1.20;99.90
6379;DHT22;3222;48.858;10.128;2023-01-24T02:07:27;1.40;99.90
6379;DHT22;3222;48.858;10.128;2023-01-24T02:09:55;1.30;99.90
6379;DHT22;3222;48.858;10.128;2023-01-24T02:12:22;1.30;99.90
6379;DHT22;3222;48.858;10.128;2023-01-24T02:14:58;1.30;99.90
6379;DHT22;3222;48.858;10.128;2023-01-24T02:17:45;1.50;99.90
6379;DHT22;3222;48.858;10.128;2023-01-24T02:20:21;1.40;99.90
6379;DHT22;3222;48.858;10.128;2023-01-24T02:26:15;1.40;99.90
6379;DHT22;3222;48.858;10.128;2023-01-24T02:28:15;1.20;99.90
6379;DHT22;3222;48.858;10.128;2023-01-24T02:30:41;1.30;99.90
6379;DHT22;3222;48.858;10.128;2023-01-24T02:33:18;1.40;99.90
6379;DHT22;3222;48.858;10.128;2023-01-24T02:35:45;1.30;99.90
6379;DHT22;3222;48.858;10.128;2023-01-24T02:38:23;1.30;99.90
6379;DHT22;3222;48.858;10.128;2023-01-24T02:40:54;1.40;99.90
6379;DHT22;3222;48.858;10.128;2023-01-24T02:43:23;1.40;99.90
6379;DHT22;3222;48.858;10.128;2023-01-24T02:45:50;1.30;99.90
6379;DHT22;3222;48.858;10.128;2023-01-24T02:48:16;1.30;99.90
6379;DHT22;3222;48.858;10.128;2023-01-24T02:50:42;1.30;99.90
6379;DHT22;3222;48.858;10.128;2023-01-24T02:53:27;1.30;99.90
6379;DHT22;3222;48.858;10.128;2023-01-24T02:56:01;1.20;99.90
6379;DHT22;3222;48.858;10.128;2023-01-24T02:58:46;1.30;99.90
6379;DHT22;3222;48.858;10.128;2023-01-24T03:01:13;1.20;99.90
6379;DHT22;3222;48.858;10.128;2023-01-24T03:03:42;1.20;99.90
6379;DHT22;3222;48.858;10.128;2023-01-24T03:06:12;1.20;99.90
6379;DHT22;3222;48.858;10.128;2023-01-24T03:08:38;1.20;99.90
6379;DHT22;3222;48.858;10.128;2023-01-24T03:11:12;1.30;99.90
6379;DHT22;3222;48.858;10.128;2023-01-24T03:13:38;1.30;99.90
6379;DHT22;3222;48.858;10.128;2023-01-24T03:16:23;1.20;99.90
6379;DHT22;3222;48.858;10.128;2023-01-24T03:19:07;1.30;99.90
6379;DHT22;3222;48.858;10.128;2023-01-24T03:21:51;1.30;99.90
6379;DHT22;3222;48.858;10.128;2023-01-24T03:24:36;1.30;99.90
6379;DHT22;3222;48.858;10.128;2023-01-24T03:27:20;1.20;99.90
6379;DHT22;3222;48.858;10.128;2023-01-24T03:30:06;1.30;99.90
6379;DHT22;3222;48.858;10.128;2023-01-24T03:32:51;1.30;99.90
6379;DHT22;3222;48.858;10.128;2023-01-24T03:35:35;1.20;99.90
6379;DHT22;3222;48.858;10.128;2023-01-24T03:38:01;1.20;99.90
6379;DHT22;3222;48.858;10.128;2023-01-24T03:40:51;1.20;99.90
6379;DHT22;3222;48.858;10.128;2023-01-24T03:43:18;1.20;99.90
6379;DHT22;3222;48.858;10.128;2023-01-24T03:45:43;1.20;99.90
6379;DHT22;3222;48.858;10.128;2023-01-24T03:48:23;1.20;99.90
6379;DHT22;3222;48.858;10.128;2023-01-24T03:50:52;1.20;99.90
6379;DHT22;3222;48.858;10.128;2023-01-24T03:53:36;1.20;99.90
6379;DHT22;3222;48.858;10.128;2023-01-24T03:56:02;1.20;99.90
6379;DHT22;3222;48.858;10.128;2023-01-24T03:58:36;1.30;99.90
6379;DHT22;3222;48.858;10.128;2023-01-24T04:01:05;1.40;99.90
6379;DHT22;3222;48.858;10.128;2023-01-24T04:03:49;1.40;99.90
6379;DHT22;3222;48.858;10.128;2023-01-24T04:06:15;1.30;99.90
6379;DHT22;3222;48.858;10.128;2023-01-24T04:08:43;1.40;99.90
6379;DHT22;3222;48.858;10.128;2023-01-24T04:11:08;1.20;99.90
6379;DHT22;3222;48.858;10.128;2023-01-24T04:13:34;1.10;99.90
6379;DHT22;3222;48.858;10.128;2023-01-24T04:16:00;1.20;99.90
6379;DHT22;3222;48.858;10.128;2023-01-24T04:18:37;1.30;99.90
6379;DHT22;3222;48.858;10.128;2023-01-24T04:21:04;1.40;99.90
6379;DHT22;3222;48.858;10.128;2023-01-24T04:23:31;1.20;99.90
6379;DHT22;3222;48.858;10.128;2023-01-24T04:25:57;1.40;99.90
6379;DHT22;3222;48.858;10.128;2023-01-24T04:28:26;1.50;99.90
6379;DHT22;3222;48.858;10.128;2023-01-24T04:31:00;1.40;99.90
6379;DHT22;3222;48.858;10.128;2023-01-24T04:33:44;1.30;99.90
6379;DHT22;3222;48.858;10.128;2023-01-24T04:36:11;1.20;99.90
6379;DHT22;3222;48.858;10.128;2023-01-24T04:38:38;1.30;99.90
6379;DHT22;3222;48.858;10.128;2023-01-24T04:41:33;1.40;99.90
6379;DHT22;3222;48.858;10.128;2023-01-24T04:43:59;1.30;99.90
6379;DHT22;3222;48.858;10.128;2023-01-24T04:46:25;1.30;99.90
6379;DHT22;3222;48.858;10.128;2023-01-24T04:48:53;1.30;99.90
6379;DHT22;3222;48.858;10.128;2023-01-24T04:51:20;1.30;99.90
6379;DHT22;3222;48.858;10.128;2023-01-24T04:53:47;1.20;99.90
6379;DHT22;3222;48.858;10.128;2023-01-24T04:56:15;1.30;99.90
6379;DHT22;3222;48.858;10.128;2023-01-24T04:58:41;1.30;99.90
6379;DHT22;3222;48.858;10.128;2023-01-24T05:01:06;1.30;99.90
6379;DHT22;3222;48.858;10.128;2023-01-24T05:03:38;1.30;99.90
6379;DHT22;3222;48.858;10.128;2023-01-24T05:06:04;1.40;99.90
6379;DHT22;3222;48.858;10.128;2023-01-24T05:08:30;1.30;99.90
6379;DHT22;3222;48.858;10.128;2023-01-24T05:11:01;1.20;99.90
6379;DHT22;3222;48.858;10.128;2023-01-24T05:13:30;1.20;99.90
6379;DHT22;3222;48.858;10.128;2023-01-24T05:15:56;1.30;99.90
6379;DHT22;3222;48.858;10.128;2023-01-24T05:18:22;1.30;99.90
6379;DHT22;3222;48.858;10.128;2023-01-24T05:20:48;1.30;99.90
6379;DHT22;3222;48.858;10.128;2023-01-24T05:23:14;1.20;99.90
6379;DHT22;3222;48.858;10.128;2023-01-24T05:25:44;1.30;99.90
6379;DHT22;3222;48.858;10.128;2023-01-24T05:28:10;1.20;99.90
6379;DHT22;3222;48.858;10.128;2023-01-24T05:30:40;1.30;99.90
6379;DHT22;3222;48.858;10.128;2023-01-24T05:33:17;1.30;99.90
6379;DHT22;3222;48.858;10.128;2023-01-24T05:35:44;1.20;99.90
6379;DHT22;3222;48.858;10.128;2023-01-24T05:38:10;1.30;99.90
6379;DHT22;3222;48.858;10.128;2023-01-24T05:40:37;1.50;99.90
6379;DHT22;3222;48.858;10.128;2023-01-24T05:43:03;1.40;99.90
6379;DHT22;3222;48.858;10.128;2023-01-24T05:45:30;1.40;99.90
6379;DHT22;3222;48.858;10.128;2023-01-24T05:47:57;1.30;99.90
6379;DHT22;3222;48.858;10.128;2023-01-24T05:50:23;1.30;99.90
6379;DHT22;3222;48.858;10.128;2023-01-24T05:53:08;1.30;99.90
6379;DHT22;3222;48.858;10.128;2023-01-24T05:55:34;1.50;99.90
6379;DHT22;3222;48.858;10.128;2023-01-24T05:58:00;1.40;99.90
6379;DHT22;3222;48.858;10.128;2023-01-24T06:00:40;1.40;99.90
6379;DHT22;3222;48.858;10.128;2023-01-24T06:03:24;1.30;99.90
6379;DHT22;3222;48.858;10.128;2023-01-24T06:05:53;1.40;99.90
6379;DHT22;3222;48.858;10.128;2023-01-24T06:08:20;1.30;99.90
6379;DHT22;3222;48.858;10.128;2023-01-24T06:10:46;1.30;99.90
6379;DHT22;3222;48.858;10.128;2023-01-24T06:13:12;1.20;99.90
6379;DHT22;3222;48.858;10.128;2023-01-24T06:15:39;1.40;99.90
6379;DHT22;3222;48.858;10.128;2023-01-24T06:18:12;1.50;99.90
6379;DHT22;3222;48.858;10.128;2023-01-24T06:20:39;1.40;99.90
6379;DHT22;3222;48.858;10.128;2023-01-24T06:23:10;1.30;99.90
6379;DHT22;3222;48.858;10.128;2023-01-24T06:25:42;1.30;99.90
6379;DHT22;3222;48.858;10.128;2023-01-24T06:28:09;1.30;99.90
6379;DHT22;3222;48.858;10.128;2023-01-24T06:30:34;1.20;99.90
6379;DHT22;3222;48.858;10.128;2023-01-24T06:38:29;1.40;99.90
6379;DHT22;3222;48.858;10.128;2023-01-24T06:40:57;1.30;99.90
6379;DHT22;3222;48.858;10.128;2023-01-24T06:43:24;1.30;99.90
6379;DHT22;3222;48.858;10.128;2023-01-24T06:45:50;1.40;99.90
6379;DHT22;3222;48.858;10.128;2023-01-24T06:48:15;1.40;99.90
6379;DHT22;3222;48.858;10.128;2023-01-24T06:50:41;1.50;99.90
6379;DHT22;3222;48.858;10.128;2023-01-24T06:53:07;1.40;99.90
6379;DHT22;3222;48.858;10.128;2023-01-24T06:55:36;1.20;99.90
6379;DHT22;3222;48.858;10.128;2023-01-24T06:58:03;1.30;99.90
6379;DHT22;3222;48.858;10.128;2023-01-24T07:00:29;1.10;99.90
6379;DHT22;3222;48.858;10.128;2023-01-24T07:02:59;1.20;99.90
6379;DHT22;3222;48.858;10.128;2023-01-24T07:05:27;1.10;99.90
6379;DHT22;3222;48.858;10.128;2023-01-24T07:07:53;1.10;99.90
6379;DHT22;3222;48.858;10.128;2023-01-24T07:10:18;1.30;99.90
6379;DHT22;3222;48.858;10.128;2023-01-24T07:12:44;1.40;99.90
6379;DHT22;3222;48.858;10.128;2023-01-24T07:15:10;1.40;99.90
6379;DHT22;3222;48.858;10.128;2023-01-24T07:17:36;1.20;99.90
6379;DHT22;3222;48.858;10.128;2023-01-24T07:20:02;1.20;99.90
6379;DHT22;3222;48.858;10.128;2023-01-24T07:22:28;1.10;99.90
6379;DHT22;3222;48.858;10.128;2023-01-24T07:24:54;1.10;99.90
6379;DHT22;3222;48.858;10.128;2023-01-24T07:27:20;1.10;99.90
6379;DHT22;3222;48.858;10.128;2023-01-24T07:29:46;1.00;99.90
6379;DHT22;3222;48.858;10.128;2023-01-24T07:32:12;1.20;99.90
6379;DHT22;3222;48.858;10.128;2023-01-24T07:34:38;1.40;99.90
6379;DHT22;3222;48.858;10.128;2023-01-24T07:37:08;1.50;99.90
6379;DHT22;3222;48.858;10.128;2023-01-24T07:39:34;1.30;99.90
6379;DHT22;3222;48.858;10.128;2023-01-24T07:42:00;1.40;99.90
6379;DHT22;3222;48.858;10.128;2023-01-24T07:44:26;1.40;99.90
6379;DHT22;3222;48.858;10.128;2023-01-24T07:46:52;1.40;99.90
6379;DHT22;3222;48.858;10.128;2023-01-24T07:49:17;1.50;99.90
6379;DHT22;3222;48.858;10.128;2023-01-24T07:51:43;1.40;99.90
6379;DHT22;3222;48.858;10.128;2023-01-24T07:54:10;1.40;99.90
6379;DHT22;3222;48.858;10.128;2023-01-24T07:56:36;1.40;99.90
6379;DHT22;3222;48.858;10.128;2023-01-24T07:59:02;1.50;99.90
6379;DHT22;3222;48.858;10.128;2023-01-24T08:01:27;1.50;99.90
6379;DHT22;3222;48.858;10.128;2023-01-24T08:03:54;1.40;99.90
6379;DHT22;3222;48.858;10.128;2023-01-24T08:06:20;1.40;99.90
6379;DHT22;3222;48.858;10.128;2023-01-24T08:08:46;1.40;99.90
6379;DHT22;3222;48.858;10.128;2023-01-24T08:11:12;1.40;99.90
6379;DHT22;3222;48.858;10.128;2023-01-24T08:13:41;1.50;99.90
6379;DHT22;3222;48.858;10.128;2023-01-24T08:16:07;1.50;99.90
6379;DHT22;3222;48.858;10.128;2023-01-24T08:18:33;1.40;99.90
6379;DHT22;3222;48.858;10.128;2023-01-24T08:20:58;1.40;99.90
6379;DHT22;3222;48.858;10.128;2023-01-24T08:23:24;1.30;99.90
6379;DHT22;3222;48.858;10.128;2023-01-24T08:25:50;1.40;99.90
6379;DHT22;3222;48.858;10.128;2023-01-24T08:28:16;1.40;99.90
6379;DHT22;3222;48.858;10.128;2023-01-24T08:30:41;1.50;99.90
6379;DHT22;3222;48.858;10.128;2023-01-24T08:33:08;1.40;99.90
6379;DHT22;3222;48.858;10.128;2023-01-24T08:35:36;1.30;99.90
6379;DHT22;3222;48.858;10.128;2023-01-24T08:38:02;1.40;99.90
6379;DHT22;3222;48.858;10.128;2023-01-24T08:40:28;1.40;99.90
6379;DHT22;3222;48.858;10.128;2023-01-24T08:42:54;1.40;99.90
6379;DHT22;3222;48.858;10.128;2023-01-24T08:45:19;1.40;99.90
6379;DHT22;3222;48.858;10.128;2023-01-24T08:47:50;1.40;99.90
6379;DHT22;3222;48.858;10.128;2023-01-24T08:50:16;1.30;99.90
6379;DHT22;3222;48.858;10.128;2023-01-24T08:52:45;1.30;99.90
6379;DHT22;3222;48.858;10.128;2023-01-24T08:55:10;1.30;99.90
6379;DHT22;3222;48.858;10.128;2023-01-24T08:57:36;1.40;99.90
6379;DHT22;3222;48.858;10.128;2023-01-24T09:00:02;1.40;99.90
6379;DHT22;3222;48.858;10.128;2023-01-24T09:02:28;1.50;99.90
6379;DHT22;3222;48.858;10.128;2023-01-24T09:04:54;1.50;99.90
6379;DHT22;3222;48.858;10.128;2023-01-24T09:07:20;1.50;99.90
6379;DHT22;3222;48.858;10.128;2023-01-24T09:09:46;1.50;99.90
6379;DHT22;3222;48.858;10.128;2023-01-24T09:12:11;1.50;99.90
6379;DHT22;3222;48.858;10.128;2023-01-24T09:14:37;1.50;99.90
6379;DHT22;3222;48.858;10.128;2023-01-24T09:17:02;1.50;99.90
6379;DHT22;3222;48.858;10.128;2023-01-24T09:19:28;1.50;99.90
6379;DHT22;3222;48.858;10.128;2023-01-24T09:21:54;1.60;99.90
6379;DHT22;3222;48.858;10.128;2023-01-24T09:24:22;1.50;99.90
6379;DHT22;3222;48.858;10.128;2023-01-24T09:26:48;1.50;99.90
6379;DHT22;3222;48.858;10.128;2023-01-24T09:29:14;1.50;99.90
6379;DHT22;3222;48.858;10.128;2023-01-24T09:31:40;1.40;99.90
6379;DHT22;3222;48.858;10.128;2023-01-24T09:34:05;1.50;99.90
6379;DHT22;3222;48.858;10.128;2023-01-24T09:36:31;1.50;99.90
6379;DHT22;3222;48.858;10.128;2023-01-24T09:38:57;1.50;99.90
6379;DHT22;3222;48.858;10.128;2023-01-24T09:41:42;1.60;99.90
6379;DHT22;3222;48.858;10.128;2023-01-24T09:44:36;1.60;99.90
6379;DHT22;3222;48.858;10.128;2023-01-24T09:50:18;1.60;99.90
6379;DHT22;3222;48.858;10.128;2023-01-24T09:52:48;1.40;99.90
6379;DHT22;3222;48.858;10.128;2023-01-24T09:55:27;1.50;99.90
6379;DHT22;3222;48.858;10.128;2023-01-24T09:58:44;1.50;99.90
6379;DHT22;3222;48.858;10.128;2023-01-24T10:00:45;1.60;99.90
6379;DHT22;3222;48.858;10.128;2023-01-24T10:03:19;1.60;99.90
6379;DHT22;3222;48.858;10.128;2023-01-24T10:05:56;1.50;99.90
6379;DHT22;3222;48.858;10.128;2023-01-24T10:08:44;1.60;99.90
6379;DHT22;3222;48.858;10.128;2023-01-24T10:19:30;1.50;99.90
6379;DHT22;3222;48.858;10.128;2023-01-24T10:25:23;1.60;99.90
6379;DHT22;3222;48.858;10.128;2023-01-24T10:27:53;1.60;99.90
6379;DHT22;3222;48.858;10.128;2023-01-24T10:33:02;1.60;99.90
6379;DHT22;3222;48.858;10.128;2023-01-24T10:35:43;1.70;99.90
6379;DHT22;3222;48.858;10.128;2023-01-24T10:38:14;1.60;99.90
6379;DHT22;3222;48.858;10.128;2023-01-24T10:40:52;1.80;99.90
6379;DHT22;3222;48.858;10.128;2023-01-24T10:43:21;1.60;99.90
6379;DHT22;3222;48.858;10.128;2023-01-24T10:48:41;1.70;99.90
6379;DHT22;3222;48.858;10.128;2023-01-24T10:51:14;1.60;99.90
6379;DHT22;3222;48.858;10.128;2023-01-24T10:53:40;1.70;99.90
6379;DHT22;3222;48.858;10.128;2023-01-24T10:56:06;1.70;99.90
6379;DHT22;3222;48.858;10.128;2023-01-24T11:01:31;1.60;99.90
6379;DHT22;3222;48.858;10.128;2023-01-24T11:03:51;1.60;99.90
6379;DHT22;3222;48.858;10.128;2023-01-24T11:06:37;1.70;99.90
6379;DHT22;3222;48.858;10.128;2023-01-24T11:09:15;1.80;99.90
6379;DHT22;3222;48.858;10.128;2023-01-24T11:11:52;1.80;99.90
6379;DHT22;3222;48.858;10.128;2023-01-24T11:14:23;1.70;99.90
6379;DHT22;3222;48.858;10.128;2023-01-24T11:16:52;1.70;99.90
6379;DHT22;3222;48.858;10.128;2023-01-24T11:21:53;1.80;99.90
6379;DHT22;3222;48.858;10.128;2023-01-24T11:24:20;1.70;99.90
6379;DHT22;3222;48.858;10.128;2023-01-24T11:26:57;1.70;99.90
6379;DHT22;3222;48.858;10.128;2023-01-24T11:29:24;1.90;99.90
6379;DHT22;3222;48.858;10.128;2023-01-24T11:32:01;1.70;99.90
6379;DHT22;3222;48.858;10.128;2023-01-24T11:34:49;1.80;99.90
6379;DHT22;3222;48.858;10.128;2023-01-24T11:37:43;1.90;99.90
6379;DHT22;3222;48.858;10.128;2023-01-24T12:00:32;1.80;99.90
6379;DHT22;3222;48.858;10.128;2023-01-24T12:08:41;2.00;99.90
6379;DHT22;3222;48.858;10.128;2023-01-24T12:11:31;2.00;99.90
6379;DHT22;3222;48.858;10.128;2023-01-24T12:19:32;2.10;99.90
6379;DHT22;3222;48.858;10.128;2023-01-24T12:22:00;2.10;99.90
6379;DHT22;3222;48.858;10.128;2023-01-24T12:24:29;2.10;99.90
6379;DHT22;3222;48.858;10.128;2023-01-24T12:27:00;2.10;99.90
6379;DHT22;3222;48.858;10.128;2023-01-24T12:29:40;2.10;99.90
6379;DHT22;3222;48.858;10.128;2023-01-24T12:32:22;2.20;99.90
6379;DHT22;3222;48.858;10.128;2023-01-24T12:35:31;2.10;99.90
6379;DHT22;3222;48.858;10.128;2023-01-24T12:38:04;2.10;99.90
6379;DHT22;3222;48.858;10.128;2023-01-24T12:40:44;2.00;99.90
6379;DHT22;3222;48.858;10.128;2023-01-24T12:46:52;2.10;99.90
6379;DHT22;3222;48.858;10.128;2023-01-24T12:52:57;2.00;99.90
6379;DHT22;3222;48.858;10.128;2023-01-24T12:58:04;1.90;99.90
6379;DHT22;3222;48.858;10.128;2023-01-24T13:01:05;1.90;99.90
6379;DHT22;3222;48.858;10.128;2023-01-24T13:06:18;1.90;99.90
6379;DHT22;3222;48.858;10.128;2023-01-24T13:09:03;1.90;99.90
6379;DHT22;3222;48.858;10.128;2023-01-24T13:11:39;1.80;99.90
6379;DHT22;3222;48.858;10.128;2023-01-24T13:22:01;2.10;99.90
6379;DHT22;3222;48.858;10.128;2023-01-24T13:24:51;2.00;99.90
6379;DHT22;3222;48.858;10.128;2023-01-24T13:27:40;2.10;99.90
6379;DHT22;3222;48.858;10.128;2023-01-24T13:32:52;2.00;99.90
6379;DHT22;3222;48.858;10.128;2023-01-24T13:35:21;2.00;99.90
6379;DHT22;3222;48.858;10.128;2023-01-24T13:38:04;2.00;99.90
6379;DHT22;3222;48.858;10.128;2023-01-24T13:40:32;1.90;99.90
6379;DHT22;3222;48.858;10.128;2023-01-24T13:43:47;1.80;99.90
6379;DHT22;3222;48.858;10.128;2023-01-24T13:45:47;1.90;99.90
6379;DHT22;3222;48.858;10.128;2023-01-24T13:54:20;2.10;99.90
6379;DHT22;3222;48.858;10.128;2023-01-24T13:59:59;1.90;99.90
6379;DHT22;3222;48.858;10.128;2023-01-24T14:05:01;1.90;99.90
6379;DHT22;3222;48.858;10.128;2023-01-24T14:07:35;1.90;99.90
6379;DHT22;3222;48.858;10.128;2023-01-24T14:10:03;1.90;99.90
6379;DHT22;3222;48.858;10.128;2023-01-24T14:12:33;1.90;99.90
6379;DHT22;3222;48.858;10.128;2023-01-24T14:15:27;2.00;99.90
6379;DHT22;3222;48.858;10.128;2023-01-24T14:17:55;2.00;99.90
6379;DHT22;3222;48.858;10.128;2023-01-24T14:20:42;2.00;99.90
6379;DHT22;3222;48.858;10.128;2023-01-24T14:23:21;2.00;99.90
6379;DHT22;3222;48.858;10.128;2023-01-24T14:25:55;1.90;99.90
6379;DHT22;3222;48.858;10.128;2023-01-24T14:31:31;1.80;99.90
6379;DHT22;3222;48.858;10.128;2023-01-24T14:34:23;1.70;99.90
6379;DHT22;3222;48.858;10.128;2023-01-24T14:37:02;1.70;99.90
6379;DHT22;3222;48.858;10.128;2023-01-24T14:39:28;1.60;99.90
6379;DHT22;3222;48.858;10.128;2023-01-24T14:41:59;1.60;99.90
6379;DHT22;3222;48.858;10.128;2023-01-24T14:44:37;1.60;99.90
6379;DHT22;3222;48.858;10.128;2023-01-24T14:49:45;1.60;99.90
6379;DHT22;3222;48.858;10.128;2023-01-24T14:52:23;1.70;99.90
6379;DHT22;3222;48.858;10.128;2023-01-24T14:55:00;1.90;99.90
6379;DHT22;3222;48.858;10.128;2023-01-24T14:57:31;1.70;99.90
6379;DHT22;3222;48.858;10.128;2023-01-24T15:02:55;1.80;99.90
6379;DHT22;3222;48.858;10.128;2023-01-24T15:05:31;1.80;99.90
6379;DHT22;3222;48.858;10.128;2023-01-24T15:07:59;1.90;99.90
6379;DHT22;3222;48.858;10.128;2023-01-24T15:10:31;1.90;99.90
6379;DHT22;3222;48.858;10.128;2023-01-24T15:13:01;1.80;99.90
6379;DHT22;3222;48.858;10.128;2023-01-24T15:15:28;1.90;99.90
